Weather at Midland International Airport

Public forecast

Using degrees Fahrenheit for public forecast. Weather courtesy of forecast.io.

Current aviation weather report (METAR) for Midland International Airport

Retrieved 2020/12/05 00:53 UTC (37 minutes ago):

KMAF 050053Z 12005KT 10SM CLR 08/M08 A3020 RMK AO2 SLP227 T00781083

Aviation forecast (TAF) for Midland International Airport

Retrieved 2020-12-05 00:22 UTC (1 hour ago):

TAF KMAF 042320Z 0500/0524 34005KT P6SM BKN150